sensor_id;sensor_type;location;lat;lon;timestamp;temperature;humidity
41142;SHT31;63666;52.284;20.890;2023-08-30T00:01:33;25.77;66.99
41142;SHT31;63666;52.284;20.890;2023-08-30T00:04:10;25.80;67.02
41142;SHT31;63666;52.284;20.890;2023-08-30T00:06:44;25.82;67.22
41142;SHT31;63666;52.284;20.890;2023-08-30T00:09:17;25.83;67.48
41142;SHT31;63666;52.284;20.890;2023-08-30T00:11:54;25.82;67.56
41142;SHT31;63666;52.284;20.890;2023-08-30T00:14:30;25.85;67.48
41142;SHT31;63666;52.284;20.890;2023-08-30T00:17:12;25.85;67.47
41142;SHT31;63666;52.284;20.890;2023-08-30T00:19:48;25.84;67.38
41142;SHT31;63666;52.284;20.890;2023-08-30T00:22:24;25.88;67.23
41142;SHT31;63666;52.284;20.890;2023-08-30T00:24:58;25.87;67.19
41142;SHT31;63666;52.284;20.890;2023-08-30T00:27:38;25.89;67.07
41142;SHT31;63666;52.284;20.890;2023-08-30T00:30:18;25.94;66.96
41142;SHT31;63666;52.284;20.890;2023-08-30T00:32:52;25.93;67.04
41142;SHT31;63666;52.284;20.890;2023-08-30T00:38:13;25.87;67.05
41142;SHT31;63666;52.284;20.890;2023-08-30T00:40:47;25.93;67.06
41142;SHT31;63666;52.284;20.890;2023-08-30T00:43:21;25.93;66.75
41142;SHT31;63666;52.284;20.890;2023-08-30T00:45:54;25.97;67.01
41142;SHT31;63666;52.284;20.890;2023-08-30T00:48:34;25.92;67.32
41142;SHT31;63666;52.284;20.890;2023-08-30T00:51:14;25.54;68.32
41142;SHT31;63666;52.284;20.890;2023-08-30T00:53:47;25.65;68.17
41142;SHT31;63666;52.284;20.890;2023-08-30T00:56:22;25.67;67.94
41142;SHT31;63666;52.284;20.890;2023-08-30T00:58:55;25.74;67.72
41142;SHT31;63666;52.284;20.890;2023-08-30T01:01:30;25.84;66.70
41142;SHT31;63666;52.284;20.890;2023-08-30T01:04:06;25.82;66.63
41142;SHT31;63666;52.284;20.890;2023-08-30T01:06:43;25.81;66.59
41142;SHT31;63666;52.284;20.890;2023-08-30T01:09:17;25.92;66.42
41142;SHT31;63666;52.284;20.890;2023-08-30T01:11:54;25.90;66.20
41142;SHT31;63666;52.284;20.890;2023-08-30T01:14:38;25.83;66.60
41142;SHT31;63666;52.284;20.890;2023-08-30T01:17:16;25.94;66.37
41142;SHT31;63666;52.284;20.890;2023-08-30T01:19:51;25.57;66.62
41142;SHT31;63666;52.284;20.890;2023-08-30T01:22:35;25.12;67.82
41142;SHT31;63666;52.284;20.890;2023-08-30T01:25:20;25.00;68.28
41142;SHT31;63666;52.284;20.890;2023-08-30T01:28:06;25.06;67.77
41142;SHT31;63666;52.284;20.890;2023-08-30T01:30:42;25.04;67.63
41142;SHT31;63666;52.284;20.890;2023-08-30T01:33:16;24.98;67.96
41142;SHT31;63666;52.284;20.890;2023-08-30T01:35:51;25.13;67.37
41142;SHT31;63666;52.284;20.890;2023-08-30T01:38:28;24.94;67.68
41142;SHT31;63666;52.284;20.890;2023-08-30T01:41:03;24.81;68.04
41142;SHT31;63666;52.284;20.890;2023-08-30T01:43:37;24.99;67.69
41142;SHT31;63666;52.284;20.890;2023-08-30T01:46:11;25.00;67.31
41142;SHT31;63666;52.284;20.890;2023-08-30T01:48:53;24.81;68.02
41142;SHT31;63666;52.284;20.890;2023-08-30T01:51:30;24.78;67.91
41142;SHT31;63666;52.284;20.890;2023-08-30T01:54:05;24.99;67.58
41142;SHT31;63666;52.284;20.890;2023-08-30T01:56:43;25.30;66.57
41142;SHT31;63666;52.284;20.890;2023-08-30T01:59:17;25.44;65.96
41142;SHT31;63666;52.284;20.890;2023-08-30T02:01:50;25.54;65.50
41142;SHT31;63666;52.284;20.890;2023-08-30T02:04:28;25.60;65.28
41142;SHT31;63666;52.284;20.890;2023-08-30T02:07:02;25.63;65.25
41142;SHT31;63666;52.284;20.890;2023-08-30T02:09:42;25.65;65.01
41142;SHT31;63666;52.284;20.890;2023-08-30T02:12:23;25.65;65.01
41142;SHT31;63666;52.284;20.890;2023-08-30T02:15:01;25.66;64.91
41142;SHT31;63666;52.284;20.890;2023-08-30T02:17:41;25.66;64.87
41142;SHT31;63666;52.284;20.890;2023-08-30T02:20:14;25.69;64.83
41142;SHT31;63666;52.284;20.890;2023-08-30T02:22:52;25.69;64.65
41142;SHT31;63666;52.284;20.890;2023-08-30T02:25:42;25.67;64.61
41142;SHT31;63666;52.284;20.890;2023-08-30T02:28:17;25.67;64.64
41142;SHT31;63666;52.284;20.890;2023-08-30T02:30:52;25.66;64.60
41142;SHT31;63666;52.284;20.890;2023-08-30T02:33:29;25.65;64.52
41142;SHT31;63666;52.284;20.890;2023-08-30T02:36:03;25.64;64.49
41142;SHT31;63666;52.284;20.890;2023-08-30T02:38:37;25.63;64.49
41142;SHT31;63666;52.284;20.890;2023-08-30T02:41:11;25.63;64.50
41142;SHT31;63666;52.284;20.890;2023-08-30T02:43:44;25.62;64.51
41142;SHT31;63666;52.284;20.890;2023-08-30T02:46:21;25.63;64.51
41142;SHT31;63666;52.284;20.890;2023-08-30T02:48:54;25.63;64.48
41142;SHT31;63666;52.284;20.890;2023-08-30T02:51:30;25.62;64.50
41142;SHT31;63666;52.284;20.890;2023-08-30T02:54:04;25.60;64.51
41142;SHT31;63666;52.284;20.890;2023-08-30T02:56:37;25.61;64.50
41142;SHT31;63666;52.284;20.890;2023-08-30T02:59:13;25.58;64.54
41142;SHT31;63666;52.284;20.890;2023-08-30T03:01:46;25.58;64.57
41142;SHT31;63666;52.284;20.890;2023-08-30T03:04:22;25.58;64.54
41142;SHT31;63666;52.284;20.890;2023-08-30T03:06:55;25.59;64.51
41142;SHT31;63666;52.284;20.890;2023-08-30T03:09:28;25.58;64.49
41142;SHT31;63666;52.284;20.890;2023-08-30T03:12:02;25.58;64.50
41142;SHT31;63666;52.284;20.890;2023-08-30T03:14:37;25.56;64.48
41142;SHT31;63666;52.284;20.890;2023-08-30T03:17:16;25.56;64.46
41142;SHT31;63666;52.284;20.890;2023-08-30T03:19:55;25.55;64.48
41142;SHT31;63666;52.284;20.890;2023-08-30T03:22:29;25.56;64.37
41142;SHT31;63666;52.284;20.890;2023-08-30T03:25:05;25.48;64.49
41142;SHT31;63666;52.284;20.890;2023-08-30T03:27:41;25.36;64.78
41142;SHT31;63666;52.284;20.890;2023-08-30T03:30:17;25.40;64.65
41142;SHT31;63666;52.284;20.890;2023-08-30T03:32:51;25.44;64.38
41142;SHT31;63666;52.284;20.890;2023-08-30T03:35:24;25.47;64.24
41142;SHT31;63666;52.284;20.890;2023-08-30T03:37:58;25.45;64.28
41142;SHT31;63666;52.284;20.890;2023-08-30T03:40:31;25.46;64.25
41142;SHT31;63666;52.284;20.890;2023-08-30T03:43:06;25.45;64.18
41142;SHT31;63666;52.284;20.890;2023-08-30T03:45:41;25.46;64.16
41142;SHT31;63666;52.284;20.890;2023-08-30T03:48:16;25.46;64.16
41142;SHT31;63666;52.284;20.890;2023-08-30T03:50:49;25.46;64.18
41142;SHT31;63666;52.284;20.890;2023-08-30T03:53:24;25.45;64.21
41142;SHT31;63666;52.284;20.890;2023-08-30T03:55:59;25.43;64.21
41142;SHT31;63666;52.284;20.890;2023-08-30T03:58:32;25.44;64.18
41142;SHT31;63666;52.284;20.890;2023-08-30T04:01:07;25.42;64.16
41142;SHT31;63666;52.284;20.890;2023-08-30T04:03:40;25.42;64.12
41142;SHT31;63666;52.284;20.890;2023-08-30T04:06:16;25.43;64.10
41142;SHT31;63666;52.284;20.890;2023-08-30T04:08:51;25.44;64.10
41142;SHT31;63666;52.284;20.890;2023-08-30T04:11:26;25.42;64.13
41142;SHT31;63666;52.284;20.890;2023-08-30T04:14:00;25.42;64.10
41142;SHT31;63666;52.284;20.890;2023-08-30T04:16:36;25.41;64.14
41142;SHT31;63666;52.284;20.890;2023-08-30T04:19:09;25.39;64.11
41142;SHT31;63666;52.284;20.890;2023-08-30T04:21:43;25.35;64.19
41142;SHT31;63666;52.284;20.890;2023-08-30T04:24:17;25.32;64.24
41142;SHT31;63666;52.284;20.890;2023-08-30T04:26:51;25.32;64.18
41142;SHT31;63666;52.284;20.890;2023-08-30T04:29:29;25.33;64.11
41142;SHT31;63666;52.284;20.890;2023-08-30T04:32:04;25.35;64.03
41142;SHT31;63666;52.284;20.890;2023-08-30T04:34:40;25.31;64.02
41142;SHT31;63666;52.284;20.890;2023-08-30T04:37:16;25.23;64.21
41142;SHT31;63666;52.284;20.890;2023-08-30T04:39:51;25.23;64.18
41142;SHT31;63666;52.284;20.890;2023-08-30T04:42:26;25.16;64.28
41142;SHT31;63666;52.284;20.890;2023-08-30T04:45:00;25.13;64.35
41142;SHT31;63666;52.284;20.890;2023-08-30T04:47:35;25.16;64.21
41142;SHT31;63666;52.284;20.890;2023-08-30T04:50:10;25.19;64.03
41142;SHT31;63666;52.284;20.890;2023-08-30T04:52:43;25.18;64.02
41142;SHT31;63666;52.284;20.890;2023-08-30T04:55:17;25.17;64.00
41142;SHT31;63666;52.284;20.890;2023-08-30T04:57:50;25.13;64.12
41142;SHT31;63666;52.284;20.890;2023-08-30T05:00:23;25.10;64.18
41142;SHT31;63666;52.284;20.890;2023-08-30T05:02:57;25.05;64.27
41142;SHT31;63666;52.284;20.890;2023-08-30T05:05:30;25.12;64.08
41142;SHT31;63666;52.284;20.890;2023-08-30T05:08:05;25.08;64.17
41142;SHT31;63666;52.284;20.890;2023-08-30T05:10:39;25.10;64.05
41142;SHT31;63666;52.284;20.890;2023-08-30T05:13:14;25.12;64.02
41142;SHT31;63666;52.284;20.890;2023-08-30T05:15:48;25.10;64.10
41142;SHT31;63666;52.284;20.890;2023-08-30T05:18:23;25.11;64.03
41142;SHT31;63666;52.284;20.890;2023-08-30T05:20:56;25.13;63.99
41142;SHT31;63666;52.284;20.890;2023-08-30T05:23:32;25.14;63.95
41142;SHT31;63666;52.284;20.890;2023-08-30T05:26:09;25.12;64.00
41142;SHT31;63666;52.284;20.890;2023-08-30T05:28:43;25.11;64.04
41142;SHT31;63666;52.284;20.890;2023-08-30T05:31:17;25.13;64.00
41142;SHT31;63666;52.284;20.890;2023-08-30T05:33:51;25.12;64.00
41142;SHT31;63666;52.284;20.890;2023-08-30T05:36:28;25.13;64.00
41142;SHT31;63666;52.284;20.890;2023-08-30T05:39:02;25.13;63.94
41142;SHT31;63666;52.284;20.890;2023-08-30T05:41:43;25.13;63.94
41142;SHT31;63666;52.284;20.890;2023-08-30T05:44:19;25.11;64.00
41142;SHT31;63666;52.284;20.890;2023-08-30T05:46:53;25.10;63.95
41142;SHT31;63666;52.284;20.890;2023-08-30T05:49:28;25.07;64.11
41142;SHT31;63666;52.284;20.890;2023-08-30T05:52:03;25.07;64.06
41142;SHT31;63666;52.284;20.890;2023-08-30T05:54:39;25.04;64.15
41142;SHT31;63666;52.284;20.890;2023-08-30T05:57:15;25.08;63.98
41142;SHT31;63666;52.284;20.890;2023-08-30T05:59:51;25.10;63.91
41142;SHT31;63666;52.284;20.890;2023-08-30T06:02:29;25.08;63.89
41142;SHT31;63666;52.284;20.890;2023-08-30T06:05:08;25.11;63.80
41142;SHT31;63666;52.284;20.890;2023-08-30T06:07:42;25.08;63.83
41142;SHT31;63666;52.284;20.890;2023-08-30T06:10:21;25.01;63.97
41142;SHT31;63666;52.284;20.890;2023-08-30T06:12:55;25.02;63.98
41142;SHT31;63666;52.284;20.890;2023-08-30T06:15:28;25.08;63.81
41142;SHT31;63666;52.284;20.890;2023-08-30T06:18:08;25.07;63.78
41142;SHT31;63666;52.284;20.890;2023-08-30T06:20:44;25.07;63.77
41142;SHT31;63666;52.284;20.890;2023-08-30T06:23:19;25.08;63.72
41142;SHT31;63666;52.284;20.890;2023-08-30T06:25:55;25.05;63.81
41142;SHT31;63666;52.284;20.890;2023-08-30T06:28:34;25.06;63.79
41142;SHT31;63666;52.284;20.890;2023-08-30T06:31:11;25.06;63.77
41142;SHT31;63666;52.284;20.890;2023-08-30T06:33:44;25.09;63.76
41142;SHT31;63666;52.284;20.890;2023-08-30T06:36:21;25.06;63.88
41142;SHT31;63666;52.284;20.890;2023-08-30T06:39:00;25.07;63.91
41142;SHT31;63666;52.284;20.890;2023-08-30T06:41:33;25.05;64.00
41142;SHT31;63666;52.284;20.890;2023-08-30T06:44:10;25.03;64.02
41142;SHT31;63666;52.284;20.890;2023-08-30T06:46:44;25.09;64.20
41142;SHT31;63666;52.284;20.890;2023-08-30T06:49:22;25.17;64.02
41142;SHT31;63666;52.284;20.890;2023-08-30T06:51:57;25.24;63.79
41142;SHT31;63666;52.284;20.890;2023-08-30T06:54:33;25.25;63.90
41142;SHT31;63666;52.284;20.890;2023-08-30T06:57:07;25.27;63.76
41142;SHT31;63666;52.284;20.890;2023-08-30T06:59:40;25.29;63.75
41142;SHT31;63666;52.284;20.890;2023-08-30T07:02:15;25.30;63.57
41142;SHT31;63666;52.284;20.890;2023-08-30T07:04:48;25.31;63.61
41142;SHT31;63666;52.284;20.890;2023-08-30T07:07:22;25.36;63.50
41142;SHT31;63666;52.284;20.890;2023-08-30T07:09:58;25.36;63.42
41142;SHT31;63666;52.284;20.890;2023-08-30T07:12:33;25.38;63.35
41142;SHT31;63666;52.284;20.890;2023-08-30T07:15:09;25.37;63.25
41142;SHT31;63666;52.284;20.890;2023-08-30T07:17:45;25.36;63.26
41142;SHT31;63666;52.284;20.890;2023-08-30T07:20:23;25.38;63.44
41142;SHT31;63666;52.284;20.890;2023-08-30T07:22:57;25.40;63.51
41142;SHT31;63666;52.284;20.890;2023-08-30T07:25:31;25.42;63.31
41142;SHT31;63666;52.284;20.890;2023-08-30T07:28:06;25.41;63.24
41142;SHT31;63666;52.284;20.890;2023-08-30T07:30:40;25.40;63.55
41142;SHT31;63666;52.284;20.890;2023-08-30T07:33:14;25.36;63.98
41142;SHT31;63666;52.284;20.890;2023-08-30T07:35:47;25.35;64.04
41142;SHT31;63666;52.284;20.890;2023-08-30T07:38:23;25.37;64.38
41142;SHT31;63666;52.284;20.890;2023-08-30T07:40:56;25.37;64.37
41142;SHT31;63666;52.284;20.890;2023-08-30T07:43:29;25.33;64.09
41142;SHT31;63666;52.284;20.890;2023-08-30T07:46:03;25.38;63.91
41142;SHT31;63666;52.284;20.890;2023-08-30T07:48:37;25.35;63.86
41142;SHT31;63666;52.284;20.890;2023-08-30T07:51:11;25.35;63.71
41142;SHT31;63666;52.284;20.890;2023-08-30T07:53:44;25.37;63.60
41142;SHT31;63666;52.284;20.890;2023-08-30T07:56:17;25.36;63.60
41142;SHT31;63666;52.284;20.890;2023-08-30T07:58:51;25.36;63.50
41142;SHT31;63666;52.284;20.890;2023-08-30T08:01:25;25.40;63.35
41142;SHT31;63666;52.284;20.890;2023-08-30T08:03:59;25.39;63.29
41142;SHT31;63666;52.284;20.890;2023-08-30T08:06:36;25.39;63.29
41142;SHT31;63666;52.284;20.890;2023-08-30T08:09:09;25.38;63.30
41142;SHT31;63666;52.284;20.890;2023-08-30T08:11:42;25.36;63.43
41142;SHT31;63666;52.284;20.890;2023-08-30T08:14:16;25.37;63.39
41142;SHT31;63666;52.284;20.890;2023-08-30T08:16:49;25.33;63.41
41142;SHT31;63666;52.284;20.890;2023-08-30T08:19:25;25.32;63.47
41142;SHT31;63666;52.284;20.890;2023-08-30T08:21:58;25.32;63.50
41142;SHT31;63666;52.284;20.890;2023-08-30T08:24:31;25.29;63.58
41142;SHT31;63666;52.284;20.890;2023-08-30T08:27:07;25.27;63.60
41142;SHT31;63666;52.284;20.890;2023-08-30T08:29:40;25.26;63.63
41142;SHT31;63666;52.284;20.890;2023-08-30T08:32:14;25.25;63.65
41142;SHT31;63666;52.284;20.890;2023-08-30T08:34:51;25.26;63.67
41142;SHT31;63666;52.284;20.890;2023-08-30T08:37:25;25.27;63.62
41142;SHT31;63666;52.284;20.890;2023-08-30T08:40:01;25.27;63.67
41142;SHT31;63666;52.284;20.890;2023-08-30T08:42:38;25.24;63.83
41142;SHT31;63666;52.284;20.890;2023-08-30T08:45:15;25.20;63.92
41142;SHT31;63666;52.284;20.890;2023-08-30T08:47:51;25.20;63.94
41142;SHT31;63666;52.284;20.890;2023-08-30T08:50:26;25.15;64.04
41142;SHT31;63666;52.284;20.890;2023-08-30T08:53:02;25.14;64.06
41142;SHT31;63666;52.284;20.890;2023-08-30T08:55:37;25.16;63.98
41142;SHT31;63666;52.284;20.890;2023-08-30T08:58:12;25.10;64.23
41142;SHT31;63666;52.284;20.890;2023-08-30T09:00:46;25.05;64.41
41142;SHT31;63666;52.284;20.890;2023-08-30T09:03:21;24.97;64.61
41142;SHT31;63666;52.284;20.890;2023-08-30T09:05:59;24.89;64.94
41142;SHT31;63666;52.284;20.890;2023-08-30T09:08:36;24.86;65.04
41142;SHT31;63666;52.284;20.890;2023-08-30T09:11:10;24.91;64.93
41142;SHT31;63666;52.284;20.890;2023-08-30T09:13:44;24.90;64.99
41142;SHT31;63666;52.284;20.890;2023-08-30T09:16:18;24.86;65.07
41142;SHT31;63666;52.284;20.890;2023-08-30T09:18:59;24.81;65.36
41142;SHT31;63666;52.284;20.890;2023-08-30T09:21:39;24.76;65.47
41142;SHT31;63666;52.284;20.890;2023-08-30T09:24:26;24.74;65.49
41142;SHT31;63666;52.284;20.890;2023-08-30T09:27:11;24.80;65.29
41142;SHT31;63666;52.284;20.890;2023-08-30T09:29:45;24.71;65.55
41142;SHT31;63666;52.284;20.890;2023-08-30T09:32:21;24.68;65.63
41142;SHT31;63666;52.284;20.890;2023-08-30T09:34:55;24.62;65.92
41142;SHT31;63666;52.284;20.890;2023-08-30T09:37:28;24.61;66.03
41142;SHT31;63666;52.284;20.890;2023-08-30T09:40:05;24.62;66.13
41142;SHT31;63666;52.284;20.890;2023-08-30T09:42:43;24.72;65.79
41142;SHT31;63666;52.284;20.890;2023-08-30T09:45:35;24.67;65.91
41142;SHT31;63666;52.284;20.890;2023-08-30T09:48:08;24.80;65.53
41142;SHT31;63666;52.284;20.890;2023-08-30T09:50:44;24.84;65.40
41142;SHT31;63666;52.284;20.890;2023-08-30T09:53:23;24.89;65.28
41142;SHT31;63666;52.284;20.890;2023-08-30T09:55:59;24.69;65.98
41142;SHT31;63666;52.284;20.890;2023-08-30T09:58:32;24.50;66.66
41142;SHT31;63666;52.284;20.890;2023-08-30T10:01:06;24.35;66.95
41142;SHT31;63666;52.284;20.890;2023-08-30T10:03:40;24.41;66.87
41142;SHT31;63666;52.284;20.890;2023-08-30T10:06:17;24.54;66.49
41142;SHT31;63666;52.284;20.890;2023-08-30T10:08:52;24.55;66.48
41142;SHT31;63666;52.284;20.890;2023-08-30T10:11:28;24.43;66.80
41142;SHT31;63666;52.284;20.890;2023-08-30T10:14:01;24.53;66.56
41142;SHT31;63666;52.284;20.890;2023-08-30T10:16:37;24.42;66.80
41142;SHT31;63666;52.284;20.890;2023-08-30T10:19:15;24.50;66.53
41142;SHT31;63666;52.284;20.890;2023-08-30T10:21:57;24.45;66.68
41142;SHT31;63666;52.284;20.890;2023-08-30T10:24:39;24.43;66.70
41142;SHT31;63666;52.284;20.890;2023-08-30T10:27:40;24.35;67.04
41142;SHT31;63666;52.284;20.890;2023-08-30T10:30:18;24.41;67.01
41142;SHT31;63666;52.284;20.890;2023-08-30T10:32:53;24.62;66.16
41142;SHT31;63666;52.284;20.890;2023-08-30T10:35:28;24.75;65.83
41142;SHT31;63666;52.284;20.890;2023-08-30T10:38:02;24.72;65.83
41142;SHT31;63666;52.284;20.890;2023-08-30T10:40:35;24.68;65.97
41142;SHT31;63666;52.284;20.890;2023-08-30T10:43:27;24.55;66.46
41142;SHT31;63666;52.284;20.890;2023-08-30T10:46:04;24.49;66.74
41142;SHT31;63666;52.284;20.890;2023-08-30T10:48:40;24.57;66.42
41142;SHT31;63666;52.284;20.890;2023-08-30T10:51:34;24.60;66.37
41142;SHT31;63666;52.284;20.890;2023-08-30T10:54:14;24.51;66.74
41142;SHT31;63666;52.284;20.890;2023-08-30T10:56:54;24.43;67.19
41142;SHT31;63666;52.284;20.890;2023-08-30T10:59:31;24.38;67.42
41142;SHT31;63666;52.284;20.890;2023-08-30T11:02:05;24.40;67.30
41142;SHT31;63666;52.284;20.890;2023-08-30T11:04:40;24.47;67.16
41142;SHT31;63666;52.284;20.890;2023-08-30T11:07:14;24.42;67.29
41142;SHT31;63666;52.284;20.890;2023-08-30T11:09:50;24.39;67.45
41142;SHT31;63666;52.284;20.890;2023-08-30T11:12:26;24.45;67.12
41142;SHT31;63666;52.284;20.890;2023-08-30T11:15:01;24.38;67.33
41142;SHT31;63666;52.284;20.890;2023-08-30T11:17:42;24.25;67.68
41142;SHT31;63666;52.284;20.890;2023-08-30T11:20:17;24.24;67.67
41142;SHT31;63666;52.284;20.890;2023-08-30T11:22:53;24.21;68.52
41142;SHT31;63666;52.284;20.890;2023-08-30T11:25:29;24.22;69.18
41142;SHT31;63666;52.284;20.890;2023-08-30T11:28:03;24.23;69.46
41142;SHT31;63666;52.284;20.890;2023-08-30T11:30:41;24.20;69.35
41142;SHT31;63666;52.284;20.890;2023-08-30T11:33:17;24.16;69.20
41142;SHT31;63666;52.284;20.890;2023-08-30T11:35:53;24.22;68.64
41142;SHT31;63666;52.284;20.890;2023-08-30T11:38:29;24.33;68.13
41142;SHT31;63666;52.284;20.890;2023-08-30T11:41:05;24.52;67.41
41142;SHT31;63666;52.284;20.890;2023-08-30T11:43:40;24.45;67.68
41142;SHT31;63666;52.284;20.890;2023-08-30T11:46:15;24.38;67.92
41142;SHT31;63666;52.284;20.890;2023-08-30T11:48:55;24.33;68.13
41142;SHT31;63666;52.284;20.890;2023-08-30T11:51:29;24.37;68.06
41142;SHT31;63666;52.284;20.890;2023-08-30T11:54:05;24.41;67.81
41142;SHT31;63666;52.284;20.890;2023-08-30T11:56:39;24.34;68.06
41142;SHT31;63666;52.284;20.890;2023-08-30T11:59:19;24.37;68.06
41142;SHT31;63666;52.284;20.890;2023-08-30T12:01:53;24.48;68.21
41142;SHT31;63666;52.284;20.890;2023-08-30T12:04:28;24.42;68.91
41142;SHT31;63666;52.284;20.890;2023-08-30T12:07:04;24.45;68.81
41142;SHT31;63666;52.284;20.890;2023-08-30T12:09:40;24.34;69.10
41142;SHT31;63666;52.284;20.890;2023-08-30T12:12:14;24.30;68.89
41142;SHT31;63666;52.284;20.890;2023-08-30T12:14:54;24.25;68.75
41142;SHT31;63666;52.284;20.890;2023-08-30T12:17:37;24.24;68.81
41142;SHT31;63666;52.284;20.890;2023-08-30T12:20:15;24.16;69.00
41142;SHT31;63666;52.284;20.890;2023-08-30T12:22:52;24.15;68.98
41142;SHT31;63666;52.284;20.890;2023-08-30T12:25:25;24.24;68.70
41142;SHT31;63666;52.284;20.890;2023-08-30T12:27:59;24.34;68.28
41142;SHT31;63666;52.284;20.890;2023-08-30T12:30:34;24.42;68.09
41142;SHT31;63666;52.284;20.890;2023-08-30T12:33:09;24.59;68.25
41142;SHT31;63666;52.284;20.890;2023-08-30T12:35:48;24.64;68.17
41142;SHT31;63666;52.284;20.890;2023-08-30T12:38:23;24.56;69.02
41142;SHT31;63666;52.284;20.890;2023-08-30T12:40:57;24.62;69.21
41142;SHT31;63666;52.284;20.890;2023-08-30T12:43:30;24.53;69.35
41142;SHT31;63666;52.284;20.890;2023-08-30T12:46:03;24.55;69.54
41142;SHT31;63666;52.284;20.890;2023-08-30T12:48:37;24.40;69.76
41142;SHT31;63666;52.284;20.890;2023-08-30T12:51:10;24.34;70.07
41142;SHT31;63666;52.284;20.890;2023-08-30T12:53:44;24.39;69.86
41142;SHT31;63666;52.284;20.890;2023-08-30T12:56:17;24.27;70.30
41142;SHT31;63666;52.284;20.890;2023-08-30T12:58:50;24.37;70.02
41142;SHT31;63666;52.284;20.890;2023-08-30T13:01:24;24.37;69.91
41142;SHT31;63666;52.284;20.890;2023-08-30T13:03:59;24.46;69.49
41142;SHT31;63666;52.284;20.890;2023-08-30T13:06:36;24.44;69.66
41142;SHT31;63666;52.284;20.890;2023-08-30T13:09:11;24.32;69.76
41142;SHT31;63666;52.284;20.890;2023-08-30T13:11:44;24.30;69.89
41142;SHT31;63666;52.284;20.890;2023-08-30T13:14:17;24.26;69.93
41142;SHT31;63666;52.284;20.890;2023-08-30T13:16:50;24.25;69.85
41142;SHT31;63666;52.284;20.890;2023-08-30T13:19:27;24.29;69.51
41142;SHT31;63666;52.284;20.890;2023-08-30T13:22:02;24.27;69.54
41142;SHT31;63666;52.284;20.890;2023-08-30T13:24:37;24.22;69.77
41142;SHT31;63666;52.284;20.890;2023-08-30T13:27:13;24.14;69.96
41142;SHT31;63666;52.284;20.890;2023-08-30T13:29:49;24.12;70.12
41142;SHT31;63666;52.284;20.890;2023-08-30T13:32:23;24.35;69.42
41142;SHT31;63666;52.284;20.890;2023-08-30T13:34:57;24.48;68.98
41142;SHT31;63666;52.284;20.890;2023-08-30T13:37:31;24.51;68.92
41142;SHT31;63666;52.284;20.890;2023-08-30T13:40:07;24.21;69.80
41142;SHT31;63666;52.284;20.890;2023-08-30T13:42:43;24.18;69.98
41142;SHT31;63666;52.284;20.890;2023-08-30T13:45:16;24.18;69.93
41142;SHT31;63666;52.284;20.890;2023-08-30T13:47:49;24.14;70.12
41142;SHT31;63666;52.284;20.890;2023-08-30T13:50:25;24.16;70.01
41142;SHT31;63666;52.284;20.890;2023-08-30T13:52:59;24.07;70.08
41142;SHT31;63666;52.284;20.890;2023-08-30T13:55:36;24.07;70.13
41142;SHT31;63666;52.284;20.890;2023-08-30T13:58:10;24.14;69.83
41142;SHT31;63666;52.284;20.890;2023-08-30T14:00:46;24.22;69.63
41142;SHT31;63666;52.284;20.890;2023-08-30T14:03:21;24.35;70.10
41142;SHT31;63666;52.284;20.890;2023-08-30T14:05:59;24.55;69.77
41142;SHT31;63666;52.284;20.890;2023-08-30T14:08:37;24.65;69.85
41142;SHT31;63666;52.284;20.890;2023-08-30T14:11:11;24.68;69.79
41142;SHT31;63666;52.284;20.890;2023-08-30T14:13:46;24.63;69.73
41142;SHT31;63666;52.284;20.890;2023-08-30T14:16:21;24.76;70.38
41142;SHT31;63666;52.284;20.890;2023-08-30T14:18:55;24.96;69.62
41142;SHT31;63666;52.284;20.890;2023-08-30T14:21:29;24.97;69.35
41142;SHT31;63666;52.284;20.890;2023-08-30T14:24:02;24.94;69.04
41142;SHT31;63666;52.284;20.890;2023-08-30T14:26:39;25.07;68.15
41142;SHT31;63666;52.284;20.890;2023-08-30T14:29:12;25.12;68.41
41142;SHT31;63666;52.284;20.890;2023-08-30T14:31:51;24.96;68.48
41142;SHT31;63666;52.284;20.890;2023-08-30T14:34:24;24.82;68.78
41142;SHT31;63666;52.284;20.890;2023-08-30T14:36:59;24.68;69.32
41142;SHT31;63666;52.284;20.890;2023-08-30T14:39:33;24.85;68.81
41142;SHT31;63666;52.284;20.890;2023-08-30T14:42:06;25.04;68.06
41142;SHT31;63666;52.284;20.890;2023-08-30T14:44:39;25.07;68.15
41142;SHT31;63666;52.284;20.890;2023-08-30T14:47:15;24.99;68.49
41142;SHT31;63666;52.284;20.890;2023-08-30T14:49:50;24.94;68.62
41142;SHT31;63666;52.284;20.890;2023-08-30T14:52:25;24.98;68.43
41142;SHT31;63666;52.284;20.890;2023-08-30T14:54:59;25.07;68.03
41142;SHT31;63666;52.284;20.890;2023-08-30T14:57:35;25.14;67.68
41142;SHT31;63666;52.284;20.890;2023-08-30T15:00:10;25.14;67.69
41142;SHT31;63666;52.284;20.890;2023-08-30T15:02:47;25.03;67.92
41142;SHT31;63666;52.284;20.890;2023-08-30T15:05:22;25.00;67.91
41142;SHT31;63666;52.284;20.890;2023-08-30T15:07:58;24.82;68.19
41142;SHT31;63666;52.284;20.890;2023-08-30T15:10:32;24.74;68.50
41142;SHT31;63666;52.284;20.890;2023-08-30T15:13:07;24.87;68.09
41142;SHT31;63666;52.284;20.890;2023-08-30T15:15:43;25.00;67.69
41142;SHT31;63666;52.284;20.890;2023-08-30T15:18:26;25.11;67.25
41142;SHT31;63666;52.284;20.890;2023-08-30T15:21:06;25.24;66.80
41142;SHT31;63666;52.284;20.890;2023-08-30T15:23:42;25.28;66.63
41142;SHT31;63666;52.284;20.890;2023-08-30T15:26:18;25.32;66.43
41142;SHT31;63666;52.284;20.890;2023-08-30T15:28:52;25.34;66.21
41142;SHT31;63666;52.284;20.890;2023-08-30T15:31:26;25.37;66.02
41142;SHT31;63666;52.284;20.890;2023-08-30T15:33:59;25.38;65.86
41142;SHT31;63666;52.284;20.890;2023-08-30T15:36:34;25.41;65.66
41142;SHT31;63666;52.284;20.890;2023-08-30T15:39:07;25.43;65.72
41142;SHT31;63666;52.284;20.890;2023-08-30T15:41:41;25.44;65.58
41142;SHT31;63666;52.284;20.890;2023-08-30T15:44:17;25.46;65.49
41142;SHT31;63666;52.284;20.890;2023-08-30T15:46:52;25.44;65.38
41142;SHT31;63666;52.284;20.890;2023-08-30T15:49:26;25.42;65.40
41142;SHT31;63666;52.284;20.890;2023-08-30T15:52:02;25.42;65.33
41142;SHT31;63666;52.284;20.890;2023-08-30T15:54:36;25.46;65.08
41142;SHT31;63666;52.284;20.890;2023-08-30T15:57:09;25.47;64.95
41142;SHT31;63666;52.284;20.890;2023-08-30T15:59:45;25.42;65.16
41142;SHT31;63666;52.284;20.890;2023-08-30T16:02:18;25.39;65.04
41142;SHT31;63666;52.284;20.890;2023-08-30T16:04:52;25.36;65.07
41142;SHT31;63666;52.284;20.890;2023-08-30T16:07:27;25.41;65.28
41142;SHT31;63666;52.284;20.890;2023-08-30T16:10:02;25.46;65.60